Maria Dolores, Chile

7:52 AM CLT on August 27, 2014 (GMT -0400)
Carriel Sur International | Change Station
CLOSE
Current Station
Airport
Location: Concepcion,
Elevation: 52 ft
Nearby Weather Stations

Elev 52 ft 36.78 °S, 73.06 °W | Updated 52 minutes ago

Overcast
Overcast
52 °F
Feels Like 52 °F
N
8
Wind Variable Wind from North

Today
High -- | Low -- °F
--% Chance of Precip.
Yesterday
High -- | Low -- °F
Precip. -- in
7:17 AM 6:24 PM
Waxing Crescent, 3% visible
Pressure 30.04 in
Visibility 6.2 miles
Clouds Scattered Clouds 1800 ft
Overcast 2500 ft
Dew Point 43 °F
Humidity 71%
Rainfall 0.00 in
Snow Depth Not available.
UV 0 out of 12
Pollen Not available.
Air Quality Not available.
Flu Activity Not available.
METAR SCIE 271100Z 36007KT 9999 SCT018 OVC025 11/06 Q1017

More Conditions Fewer Conditions

Pressure 30.04 in
Visibility 6.2 miles
Clouds Scattered Clouds 1800 ft
Overcast 2500 ft
Dew Point 43 °F
Humidity 71%
Rainfall 0.00 in
Snow Depth Not available.
UV 0 out of 12
Pollen Not available.
Air Quality Not available.
Flu Activity Not available.
METAR SCIE 271100Z 36007KT 9999 SCT018 OVC025 11/06 Q1017

More Conditions Fewer Conditions

10-Day Weather Forecast

Almanac

Astronomy

Aug. 27, 2014 Rise Set
Actual Time 7:17 AM CLT 6:24 PM CLT
Civil Twilight 6:51 AM CLT 6:51 PM CLT
Nautical Twilight 6:21 AM CLT 7:21 PM CLT
Astronomical Twilight 5:50 AM CLT 7:51 PM CLT
Moon 8:05 AM CLT 8:32 PM CLT
Length of Visible Light 11h 59m
Length of Day
11h 07m
Tomorrow will be 2m 13s longer.
Waxing Crescent, 3% of the Moon is Illuminated
Today
Waxing Crescent
Sep 2
First Quarter
Sep 8
Full
Sep 15
Last Quarter
Sep 24
New

Yesterday's Extremes

Country Highs Country Lows

Community

WunderPhotos

Upload Photos

1,747,670 photos uploaded!

Nearby

Snow Depth

Not available.

Earthquake Activity

City Distance Mag. Time & Date
No recent earthquake activity has been reported nearby.
Minimum magnitude displayed is 2.5.

Coastal Water Temperatures

Place Temperature
No Stations Reporting

Nearby Weather Stations